createdAt,value
2023-10-09T00:00:33.980Z,95010.06
2023-10-09T00:03:02.709Z,95013.69
2023-10-09T00:05:40.590Z,95031.53
2023-10-09T00:08:10.604Z,95014.34
2023-10-09T00:10:46.949Z,95024.03
2023-10-09T00:13:16.810Z,95032.72
2023-10-09T00:15:45.155Z,95021.63
2023-10-09T00:18:13.853Z,95022.63
2023-10-09T00:20:44.095Z,95015.75
2023-10-09T00:23:17.253Z,95024.25
2023-10-09T00:26:09.710Z,95005.28
2023-10-09T00:28:42.719Z,95005.28
2023-10-09T00:31:16.032Z,95004.88
2023-10-09T00:33:44.733Z,95007.31
2023-10-09T00:36:19.709Z,95006.50
2023-10-09T00:38:52.401Z,95036.41
2023-10-09T00:41:26.244Z,95018.19
2023-10-09T00:44:00.563Z,95019.00
2023-10-09T00:46:30.158Z,95003.25
2023-10-09T00:49:04.165Z,95008.50
2023-10-09T00:51:37.007Z,95018.78
2023-10-09T00:54:15.451Z,95029.88
2023-10-09T00:56:53.195Z,95022.41
2023-10-09T00:59:25.960Z,95027.63
2023-10-09T01:01:59.158Z,95022.97
2023-10-09T01:04:33.788Z,95033.88
2023-10-09T01:07:10.398Z,95027.16
2023-10-09T01:09:39.253Z,95051.19
2023-10-09T01:12:08.873Z,95068.97
2023-10-09T01:14:42.179Z,95053.59
2023-10-09T01:17:13.025Z,95061.22
2023-10-09T01:19:44.293Z,95071.72
2023-10-09T01:22:16.012Z,95065.00
2023-10-09T01:24:45.523Z,95063.97
2023-10-09T01:27:16.638Z,95092.81
2023-10-09T01:29:47.794Z,95071.97
2023-10-09T01:32:20.669Z,95091.69
2023-10-09T01:34:51.077Z,95069.59
2023-10-09T01:37:23.728Z,95103.25
2023-10-09T01:40:00.488Z,95093.72
2023-10-09T01:42:35.751Z,95106.75
2023-10-09T01:45:17.327Z,95089.81
2023-10-09T01:47:52.978Z,95099.84
2023-10-09T01:50:23.548Z,95105.78
2023-10-09T01:52:52.665Z,95101.31
2023-10-09T01:55:34.321Z,95101.31
2023-10-09T01:58:18.238Z,95102.25
2023-10-09T02:00:50.501Z,95122.13
2023-10-09T02:03:19.960Z,95124.47
2023-10-09T02:05:50.806Z,95128.22
2023-10-09T02:08:23.168Z,95123.59
2023-10-09T02:10:56.307Z,95135.13
2023-10-09T02:13:30.462Z,95121.00
2023-10-09T02:16:14.550Z,95125.13
2023-10-09T02:18:54.513Z,95133.91
2023-10-09T02:21:33.997Z,95152.28
2023-10-09T02:24:06.907Z,95139.78
2023-10-09T02:27:02.653Z,95164.41
2023-10-09T02:29:36.486Z,95167.63
2023-10-09T02:32:14.993Z,95201.53
2023-10-09T02:34:47.695Z,95163.94
2023-10-09T02:37:16.092Z,95195.78
2023-10-09T02:39:48.368Z,95172.50
2023-10-09T02:42:28.085Z,95178.13
2023-10-09T02:44:57.447Z,95176.81
2023-10-09T02:47:30.908Z,95161.16
2023-10-09T02:50:07.816Z,95173.75
2023-10-09T02:52:42.342Z,95166.69
2023-10-09T02:55:15.310Z,95154.72
2023-10-09T02:57:46.531Z,95179.66
2023-10-09T03:00:20.755Z,95188.19
2023-10-09T03:02:51.474Z,95177.84
2023-10-09T03:05:21.984Z,95209.47
2023-10-09T03:07:51.369Z,95177.56
2023-10-09T03:10:19.512Z,95163.47
2023-10-09T03:12:52.986Z,95192.25
2023-10-09T03:15:21.607Z,95201.72
2023-10-09T03:17:50.501Z,95204.38
2023-10-09T03:20:19.785Z,95192.38
2023-10-09T03:22:49.356Z,95203.28
2023-10-09T03:25:18.294Z,95210.72
2023-10-09T03:27:48.173Z,95197.75
2023-10-09T03:30:24.063Z,95225.03
2023-10-09T03:32:53.573Z,95225.41
2023-10-09T03:35:27.421Z,95225.13
2023-10-09T03:38:01.375Z,95221.56
2023-10-09T03:40:29.957Z,95225.16
2023-10-09T03:43:02.501Z,95219.00
2023-10-09T03:45:32.817Z,95228.28
2023-10-09T03:48:07.032Z,95234.19
2023-10-09T03:50:38.754Z,95243.81
2023-10-09T03:53:09.191Z,95224.47
2023-10-09T03:55:39.605Z,95244.50
2023-10-09T03:58:13.031Z,95217.16
2023-10-09T04:00:47.004Z,95235.91
2023-10-09T04:03:17.002Z,95257.59
2023-10-09T04:05:45.964Z,95252.56
2023-10-09T04:08:20.639Z,95245.41
2023-10-09T04:10:58.861Z,95255.19
2023-10-09T04:13:35.035Z,95251.78
2023-10-09T04:16:12.596Z,95259.91
2023-10-09T04:18:41.535Z,95247.22
2023-10-09T04:21:20.894Z,95235.50
2023-10-09T04:24:06.965Z,95227.25
2023-10-09T04:26:36.334Z,95238.63
2023-10-09T04:29:06.836Z,95252.47
2023-10-09T04:31:38.636Z,95244.69
2023-10-09T04:34:36.101Z,95241.75
2023-10-09T04:37:20.972Z,95256.22
2023-10-09T04:39:48.443Z,95265.38
2023-10-09T04:42:37.021Z,95271.22
2023-10-09T04:45:37.033Z,95245.66
2023-10-09T04:48:10.268Z,95258.69
2023-10-09T04:51:04.326Z,95262.09
2023-10-09T04:53:40.562Z,95242.69
2023-10-09T04:56:16.800Z,95240.09
2023-10-09T04:58:47.343Z,95262.25
2023-10-09T05:01:23.222Z,95260.00
2023-10-09T05:03:58.213Z,95268.44
2023-10-09T05:06:51.524Z,95246.63
2023-10-09T05:09:21.778Z,95249.88
2023-10-09T05:11:57.599Z,95275.13
2023-10-09T05:14:40.038Z,95260.78
2023-10-09T05:17:17.331Z,95255.09
2023-10-09T05:19:56.106Z,95274.31
2023-10-09T05:22:38.900Z,95283.09
2023-10-09T05:25:17.477Z,95289.63
2023-10-09T05:27:51.950Z,95268.63
2023-10-09T05:30:27.111Z,95302.34
2023-10-09T05:33:00.006Z,95285.53
2023-10-09T05:36:00.653Z,95299.72
2023-10-09T05:38:31.920Z,95309.16
2023-10-09T05:41:19.146Z,95300.50
2023-10-09T05:44:04.625Z,95318.63
2023-10-09T05:46:37.950Z,95329.22
2023-10-09T05:49:21.356Z,95308.00
2023-10-09T05:51:54.422Z,95317.94
2023-10-09T05:54:39.994Z,95324.94
2023-10-09T05:57:25.383Z,95332.13
2023-10-09T06:00:10.988Z,95322.19
2023-10-09T06:03:02.138Z,95332.94
2023-10-09T06:05:52.841Z,95337.19
2023-10-09T06:08:26.187Z,95364.72
2023-10-09T06:11:07.136Z,95354.78
2023-10-09T06:13:47.162Z,95364.72
2023-10-09T06:16:42.745Z,95362.44
2023-10-09T06:19:14.542Z,95364.84
2023-10-09T06:22:07.838Z,95355.09
2023-10-09T06:24:42.955Z,95373.50
2023-10-09T06:27:15.018Z,95355.41
2023-10-09T06:30:14.282Z,95366.28
2023-10-09T06:32:51.743Z,95382.44
2023-10-09T06:35:23.256Z,95363.69
2023-10-09T06:38:11.497Z,95372.03
2023-10-09T06:41:12.997Z,95375.91
2023-10-09T06:43:49.058Z,95363.72
2023-10-09T06:46:44.355Z,95379.16
2023-10-09T06:49:41.471Z,95386.97
2023-10-09T06:52:38.338Z,95395.28
2023-10-09T06:55:20.341Z,95385.66
2023-10-09T06:57:50.360Z,95374.53
2023-10-09T07:00:36.391Z,95370.31
2023-10-09T07:03:12.825Z,95382.53
2023-10-09T07:06:01.868Z,95372.91
2023-10-09T07:08:38.031Z,95367.38
2023-10-09T07:11:54.767Z,95380.50
2023-10-09T07:14:54.956Z,95371.38
2023-10-09T07:17:44.198Z,95376.06
2023-10-09T07:20:16.919Z,95395.00
2023-10-09T07:23:14.902Z,95375.88
2023-10-09T07:25:56.088Z,95378.63
2023-10-09T07:28:38.215Z,95379.91
2023-10-09T07:31:10.358Z,95377.28
2023-10-09T07:36:39.288Z,95391.91
2023-10-09T07:39:18.788Z,95394.22
2023-10-09T07:41:56.917Z,95398.97
2023-10-09T07:44:39.509Z,95375.53
2023-10-09T07:47:24.054Z,95391.53
2023-10-09T07:49:55.430Z,95384.75
2023-10-09T07:52:27.447Z,95370.59
2023-10-09T07:55:02.874Z,95382.13
2023-10-09T07:57:40.765Z,95396.53
2023-10-09T08:00:29.751Z,95394.53
2023-10-09T08:03:01.614Z,95380.38
2023-10-09T08:05:34.692Z,95396.56
2023-10-09T08:08:36.106Z,95399.44
2023-10-09T08:11:26.819Z,95401.75
2023-10-09T08:14:03.969Z,95386.88
2023-10-09T08:16:40.444Z,95383.06
2023-10-09T08:19:33.741Z,95371.00
2023-10-09T08:22:34.922Z,95378.91
2023-10-09T08:25:04.797Z,95384.38
2023-10-09T08:27:56.036Z,95376.88
2023-10-09T08:30:42.222Z,95376.88
2023-10-09T08:36:06.831Z,95376.16
2023-10-09T08:38:35.706Z,95365.72
2023-10-09T08:41:18.992Z,95344.22
2023-10-09T08:43:52.622Z,95348.16
2023-10-09T08:46:28.282Z,95339.50
2023-10-09T08:48:58.099Z,95323.63
2023-10-09T08:51:27.430Z,95343.38
2023-10-09T08:53:55.813Z,95348.28
2023-10-09T08:56:25.537Z,95326.50
2023-10-09T08:58:54.284Z,95344.81
2023-10-09T09:01:24.007Z,95325.25
2023-10-09T09:03:52.983Z,95360.47
2023-10-09T09:06:21.465Z,95327.88
2023-10-09T09:08:49.906Z,95323.16
2023-10-09T09:11:23.747Z,95327.75
2023-10-09T09:14:07.952Z,95356.38
2023-10-09T09:16:37.988Z,95347.53
2023-10-09T09:19:19.019Z,95338.47
2023-10-09T09:21:55.824Z,95335.00
2023-10-09T09:24:34.552Z,95325.50
2023-10-09T09:27:14.223Z,95325.59
2023-10-09T09:29:49.357Z,95320.44
2023-10-09T09:32:21.898Z,95307.00
2023-10-09T09:34:55.649Z,95310.47
2023-10-09T09:37:29.969Z,95301.94
2023-10-09T09:40:02.109Z,95283.19
2023-10-09T09:42:33.714Z,95313.84
2023-10-09T09:45:05.259Z,95293.81
2023-10-09T09:47:37.247Z,95296.88
2023-10-09T09:50:15.084Z,95305.34
2023-10-09T09:52:43.445Z,95315.63
2023-10-09T09:55:19.347Z,95302.47
2023-10-09T09:57:53.097Z,95296.56
2023-10-09T10:00:32.128Z,95284.97
2023-10-09T10:03:07.151Z,95282.13
2023-10-09T10:05:36.811Z,95266.97
2023-10-09T10:08:13.485Z,95252.94
2023-10-09T10:10:51.489Z,95255.59
2023-10-09T10:13:29.150Z,95260.59
2023-10-09T10:16:11.558Z,95245.28
2023-10-09T10:18:57.327Z,95247.66
2023-10-09T10:21:39.085Z,95253.69
2023-10-09T10:24:29.580Z,95244.38
2023-10-09T10:27:25.321Z,95236.28
2023-10-09T10:30:27.080Z,95235.13
2023-10-09T10:33:10.651Z,95220.06
2023-10-09T10:35:47.517Z,95204.91
2023-10-09T10:38:34.130Z,95202.31
2023-10-09T10:41:13.834Z,95203.88
2023-10-09T10:44:22.101Z,95183.28
2023-10-09T10:46:53.619Z,95187.16
2023-10-09T10:49:27.641Z,95185.78
2023-10-09T10:52:02.884Z,95173.72
2023-10-09T10:55:06.821Z,95182.13
2023-10-09T10:57:57.293Z,95181.53
2023-10-09T11:00:41.773Z,95177.53
2023-10-09T11:03:18.766Z,95174.88
2023-10-09T11:05:53.084Z,95162.41
2023-10-09T11:08:31.706Z,95171.22
2023-10-09T11:11:16.946Z,95167.25
2023-10-09T11:13:59.050Z,95148.84
2023-10-09T11:16:50.805Z,95153.47
2023-10-09T11:19:32.850Z,95130.28
2023-10-09T11:22:33.159Z,95145.91
2023-10-09T11:25:13.851Z,95116.25
2023-10-09T11:27:51.424Z,95112.38
2023-10-09T11:30:34.217Z,95107.88
2023-10-09T11:33:06.323Z,95103.31
2023-10-09T11:35:36.145Z,95120.34
2023-10-09T11:38:22.403Z,95131.34
2023-10-09T11:41:07.396Z,95116.19
2023-10-09T11:43:53.912Z,95107.16
2023-10-09T11:46:49.732Z,95103.53
2023-10-09T11:49:33.487Z,95086.28
2023-10-09T11:52:26.105Z,95097.97
2023-10-09T11:54:57.762Z,95095.75
2023-10-09T11:57:32.039Z,95097.72
2023-10-09T12:00:01.119Z,95078.81
2023-10-09T12:02:29.716Z,95063.91
2023-10-09T12:04:58.337Z,95068.03
2023-10-09T12:07:28.939Z,95054.78
2023-10-09T12:09:58.624Z,95050.91
2023-10-09T12:12:28.322Z,95051.72
2023-10-09T12:14:57.010Z,95048.09
2023-10-09T12:17:27.779Z,95038.16
2023-10-09T12:19:57.651Z,95035.88
2023-10-09T12:22:28.743Z,95033.38
2023-10-09T12:24:58.379Z,95045.47
2023-10-09T12:27:26.630Z,95044.06
2023-10-09T12:29:58.179Z,95031.59
2023-10-09T12:32:37.534Z,95027.47
2023-10-09T12:35:18.345Z,95020.19
2023-10-09T12:37:47.296Z,95024.72
2023-10-09T12:40:25.252Z,95014.81
2023-10-09T12:42:56.942Z,95015.09
2023-10-09T12:45:27.428Z,95002.28
2023-10-09T12:48:00.587Z,95016.94
2023-10-09T12:50:35.055Z,95005.59
2023-10-09T12:53:08.268Z,95000.88
2023-10-09T12:55:41.616Z,94992.41
2023-10-09T12:58:13.011Z,94981.50
2023-10-09T13:00:45.671Z,94979.28
2023-10-09T13:03:20.092Z,94989.56
2023-10-09T13:05:56.527Z,94977.56
2023-10-09T13:08:32.560Z,94972.50
2023-10-09T13:11:12.110Z,94978.13
2023-10-09T13:13:42.780Z,94961.59
2023-10-09T13:16:15.130Z,94974.53
2023-10-09T13:18:51.255Z,94967.63
2023-10-09T13:21:21.469Z,94947.91
2023-10-09T13:23:52.284Z,94947.88
2023-10-09T13:26:33.761Z,94962.03
2023-10-09T13:29:04.448Z,94949.25
2023-10-09T13:31:38.954Z,94939.34
2023-10-09T13:34:11.224Z,94932.97
2023-10-09T13:36:39.955Z,94943.09
2023-10-09T13:39:25.606Z,94952.44
2023-10-09T13:42:01.193Z,94950.56
2023-10-09T13:44:30.006Z,94936.66
2023-10-09T13:46:59.249Z,94928.69
2023-10-09T13:49:31.541Z,94935.59
2023-10-09T13:52:02.642Z,94936.66
2023-10-09T13:54:40.901Z,94916.94
2023-10-09T13:57:12.250Z,94922.34
2023-10-09T13:59:44.903Z,94891.94
2023-10-09T14:02:19.160Z,94901.53
2023-10-09T14:04:49.000Z,94909.00
2023-10-09T14:07:19.477Z,94900.19
2023-10-09T14:09:56.841Z,94920.19
2023-10-09T14:12:31.076Z,94926.03
2023-10-09T14:14:59.639Z,94916.44
2023-10-09T14:17:29.796Z,94920.19
2023-10-09T14:20:20.376Z,94911.63
2023-10-09T14:22:53.963Z,94918.56
2023-10-09T14:25:23.069Z,94918.03
2023-10-09T14:27:54.306Z,94917.72
2023-10-09T14:30:31.950Z,94899.94
2023-10-09T14:33:03.226Z,94908.63
2023-10-09T14:35:34.570Z,94915.66
2023-10-09T14:38:06.397Z,94911.59
2023-10-09T14:40:34.928Z,94908.09
2023-10-09T14:43:04.624Z,94910.19
2023-10-09T14:45:32.869Z,94904.66
2023-10-09T14:48:01.806Z,94902.31
2023-10-09T14:50:30.316Z,94888.25
2023-10-09T14:53:02.449Z,94889.91
2023-10-09T14:55:32.963Z,94889.91
2023-10-09T14:58:01.126Z,94875.78
2023-10-09T15:00:35.298Z,94859.13
2023-10-09T15:03:04.483Z,94878.47
2023-10-09T15:05:36.247Z,94883.53
2023-10-09T15:08:05.370Z,94890.34
2023-10-09T15:10:33.565Z,94887.38
2023-10-09T15:13:01.758Z,94884.19
2023-10-09T15:15:32.360Z,94892.94
2023-10-09T15:18:00.461Z,94885.91
2023-10-09T15:20:29.207Z,94887.63
2023-10-09T15:22:57.818Z,94860.09
2023-10-09T15:25:26.113Z,94871.78
2023-10-09T15:27:54.245Z,94883.56
2023-10-09T15:30:22.448Z,94873.06
2023-10-09T15:32:52.086Z,94867.25
2023-10-09T15:35:20.369Z,94874.53
2023-10-09T15:37:48.577Z,94871.22
2023-10-09T15:40:20.093Z,94872.16
2023-10-09T15:42:55.447Z,94866.78
2023-10-09T15:45:23.861Z,94882.81
2023-10-09T15:47:53.831Z,94875.22
2023-10-09T15:50:25.339Z,94858.38
2023-10-09T15:52:55.229Z,94861.00
2023-10-09T15:55:25.670Z,94872.97
2023-10-09T15:57:55.816Z,94868.59
2023-10-09T16:00:29.885Z,94876.84
2023-10-09T16:03:02.178Z,94871.22
2023-10-09T16:05:31.801Z,94874.63
2023-10-09T16:08:01.577Z,94886.19
2023-10-09T16:10:30.410Z,94880.22
2023-10-09T16:12:59.130Z,94885.66
2023-10-09T16:15:28.731Z,94881.78
2023-10-09T16:18:04.501Z,94897.00
2023-10-09T16:20:34.836Z,94880.53
2023-10-09T16:23:06.201Z,94915.53
2023-10-09T16:25:42.683Z,94909.63
2023-10-09T16:28:11.751Z,94892.78
2023-10-09T16:30:44.836Z,94920.41
2023-10-09T16:33:18.051Z,94914.97
2023-10-09T16:35:50.287Z,94901.59
2023-10-09T16:38:18.790Z,94905.47
2023-10-09T16:40:55.183Z,94902.34
2023-10-09T16:43:26.962Z,94883.13
2023-10-09T16:45:58.331Z,94888.41
2023-10-09T16:48:29.033Z,94882.16
2023-10-09T16:51:06.134Z,94873.56
2023-10-09T16:53:38.043Z,94879.63
2023-10-09T16:56:11.274Z,94873.69
2023-10-09T16:58:40.567Z,94889.13
2023-10-09T17:01:11.993Z,94871.03
2023-10-09T17:03:44.173Z,94877.44
2023-10-09T17:06:19.326Z,94864.09
2023-10-09T17:08:49.386Z,94888.88
2023-10-09T17:11:21.619Z,94879.19
2023-10-09T17:13:50.803Z,94883.25
2023-10-09T17:16:21.167Z,94887.44
2023-10-09T17:18:50.126Z,94872.09
2023-10-09T17:21:24.297Z,94868.94
2023-10-09T17:23:55.016Z,94884.06
2023-10-09T17:26:24.429Z,94879.84
2023-10-09T17:28:53.818Z,94871.63
2023-10-09T17:31:24.795Z,94865.88
2023-10-09T17:33:55.227Z,94881.72
2023-10-09T17:36:27.635Z,94880.16
2023-10-09T17:38:56.575Z,94870.31
2023-10-09T17:41:25.238Z,94882.78
2023-10-09T17:43:53.544Z,94882.22
2023-10-09T17:46:22.204Z,94879.84
2023-10-09T17:48:52.086Z,94887.56
2023-10-09T17:51:40.735Z,94885.31
2023-10-09T17:54:10.564Z,94862.31
2023-10-09T17:56:38.950Z,94870.78
2023-10-09T17:59:12.918Z,94868.50
2023-10-09T18:01:41.363Z,94859.22
2023-10-09T18:04:11.275Z,94859.91
2023-10-09T18:06:41.238Z,94854.31
2023-10-09T18:09:17.163Z,94829.44
2023-10-09T18:11:46.472Z,94843.53
2023-10-09T18:14:15.475Z,94837.16
2023-10-09T18:16:44.181Z,94828.91
2023-10-09T18:19:15.855Z,94816.63
2023-10-09T18:21:52.236Z,94825.53
2023-10-09T18:24:26.808Z,94829.56
2023-10-09T18:26:55.213Z,94833.22
2023-10-09T18:29:25.632Z,94834.84
2023-10-09T18:31:54.246Z,94836.06
2023-10-09T18:34:22.894Z,94837.50
2023-10-09T18:36:53.559Z,94841.72
2023-10-09T18:39:24.029Z,94842.53
2023-10-09T18:41:53.240Z,94849.56
2023-10-09T18:44:22.435Z,94855.44
2023-10-09T18:46:50.706Z,94824.81
2023-10-09T18:49:19.348Z,94815.69
2023-10-09T18:51:48.080Z,94831.63
2023-10-09T18:54:17.579Z,94841.69
2023-10-09T18:56:45.865Z,94849.16
2023-10-09T18:59:15.737Z,94849.16
2023-10-09T19:01:44.220Z,94850.81
2023-10-09T19:04:14.058Z,94852.03
2023-10-09T19:06:42.607Z,94849.41
2023-10-09T19:09:13.243Z,94854.44
2023-10-09T19:11:44.287Z,94858.28
2023-10-09T19:14:14.172Z,94858.88
2023-10-09T19:16:42.582Z,94852.44
2023-10-09T19:19:13.802Z,94856.69
2023-10-09T19:21:44.578Z,94838.53
2023-10-09T19:24:14.045Z,94836.13
2023-10-09T19:26:44.059Z,94840.53
2023-10-09T19:29:12.929Z,94859.69
2023-10-09T19:31:43.830Z,94842.91
2023-10-09T19:34:14.699Z,94845.69
2023-10-09T19:36:48.356Z,94836.03
2023-10-09T19:39:18.476Z,94872.38
2023-10-09T19:41:48.437Z,94878.81
2023-10-09T19:44:18.818Z,94880.81
2023-10-09T19:46:47.349Z,94887.03
2023-10-09T19:49:15.949Z,94886.16
2023-10-09T19:51:44.273Z,94886.50
2023-10-09T19:54:12.677Z,94886.41
2023-10-09T19:56:43.749Z,94888.25
2023-10-09T19:59:13.924Z,94890.19
2023-10-09T20:01:42.425Z,94871.31
2023-10-09T20:04:10.604Z,94873.53
2023-10-09T20:06:40.771Z,94876.78
2023-10-09T20:09:13.771Z,94875.59
2023-10-09T20:11:44.476Z,94879.97
2023-10-09T20:14:14.364Z,94882.41
2023-10-09T20:16:42.865Z,94874.66
2023-10-09T20:19:11.501Z,94886.69
2023-10-09T20:21:40.093Z,94877.47
2023-10-09T20:24:08.816Z,94869.63
2023-10-09T20:26:43.056Z,94858.00
2023-10-09T20:29:14.878Z,94872.78
2023-10-09T20:31:46.120Z,94878.03
2023-10-09T20:34:14.524Z,94880.19
2023-10-09T20:36:43.599Z,94880.66
2023-10-09T20:39:12.592Z,94859.53
2023-10-09T20:41:41.029Z,94877.91
2023-10-09T20:44:11.672Z,94882.75
2023-10-09T20:46:44.145Z,94877.16
2023-10-09T20:49:15.757Z,94881.56
2023-10-09T20:51:56.736Z,94883.66
2023-10-09T20:54:26.699Z,94884.16
2023-10-09T20:56:55.053Z,94894.22
2023-10-09T20:59:24.165Z,94891.84
2023-10-09T21:01:54.034Z,94884.75
2023-10-09T21:04:22.381Z,94899.69
2023-10-09T21:06:50.714Z,94900.75
2023-10-09T21:09:19.038Z,94903.00
2023-10-09T21:11:48.110Z,94888.13
2023-10-09T21:14:18.354Z,94892.66
2023-10-09T21:16:47.461Z,94860.50
2023-10-09T21:19:17.442Z,94847.94
2023-10-09T21:21:45.700Z,94870.44
2023-10-09T21:24:15.144Z,94873.91
2023-10-09T21:26:43.620Z,94876.28
2023-10-09T21:29:13.012Z,94863.63
2023-10-09T21:31:41.804Z,94867.59
2023-10-09T21:34:11.818Z,94853.88
2023-10-09T21:36:41.978Z,94856.56
2023-10-09T21:39:10.907Z,94856.38
2023-10-09T21:41:40.124Z,94849.16
2023-10-09T21:44:14.736Z,94847.22
2023-10-09T21:46:44.578Z,94866.19
2023-10-09T21:49:13.050Z,94875.53
2023-10-09T21:51:42.868Z,94868.38
2023-10-09T21:54:11.016Z,94875.03
2023-10-09T21:56:39.586Z,94867.16
2023-10-09T21:59:10.608Z,94857.13
2023-10-09T22:01:39.843Z,94868.06
2023-10-09T22:04:08.688Z,94873.25
2023-10-09T22:06:38.841Z,94881.06
2023-10-09T22:09:08.859Z,94864.44
2023-10-09T22:11:37.657Z,94869.22
2023-10-09T22:14:06.521Z,94873.47
2023-10-09T22:16:34.879Z,94867.50
2023-10-09T22:19:13.927Z,94867.59
2023-10-09T22:21:48.735Z,94861.63
2023-10-09T22:24:22.088Z,94858.38
2023-10-09T22:26:52.519Z,94865.47
2023-10-09T22:29:21.062Z,94875.31
2023-10-09T22:31:49.517Z,94868.06
2023-10-09T22:34:21.039Z,94867.63
2023-10-09T22:39:34.090Z,94863.22
2023-10-09T22:42:04.717Z,94847.88
2023-10-09T22:44:34.155Z,94859.78
2023-10-09T22:47:08.598Z,94839.38
2023-10-09T22:49:37.260Z,94858.88
2023-10-09T22:52:12.261Z,94840.94
2023-10-09T22:54:43.895Z,94827.78
2023-10-09T22:57:14.074Z,94832.88
2023-10-09T22:59:46.441Z,94858.59
2023-10-09T23:02:23.451Z,94864.00
2023-10-09T23:04:57.118Z,94841.44
2023-10-09T23:07:25.540Z,94854.50
2023-10-09T23:09:56.186Z,94856.91
2023-10-09T23:12:36.623Z,94854.94
2023-10-09T23:15:10.776Z,94853.91
2023-10-09T23:17:49.509Z,94845.41
2023-10-09T23:20:23.919Z,94835.28
2023-10-09T23:22:53.147Z,94840.34
2023-10-09T23:25:30.745Z,94844.03
2023-10-09T23:30:59.620Z,94859.34
2023-10-09T23:33:31.333Z,94851.19
2023-10-09T23:36:06.069Z,94860.47
2023-10-09T23:38:36.227Z,94855.34
2023-10-09T23:41:10.815Z,94837.41
2023-10-09T23:43:47.112Z,94845.03
2023-10-09T23:46:19.051Z,94824.81
2023-10-09T23:48:50.130Z,94837.63
2023-10-09T23:51:20.798Z,94841.34
2023-10-09T23:53:53.550Z,94828.28
2023-10-09T23:56:36.070Z,94841.25
2023-10-09T23:59:12.274Z,94830.00
